createdAt,value
2018-06-25T00:01:27.173Z,101884.56
2018-06-25T00:03:55.244Z,101887.50
2018-06-25T00:06:23.303Z,101880.70
2018-06-25T00:08:51.353Z,101881.44
2018-06-25T00:11:19.390Z,101882.57
2018-06-25T00:13:47.427Z,101878.66
2018-06-25T00:16:15.469Z,101878.24
2018-06-25T00:18:43.529Z,101870.61
2018-06-25T00:21:11.575Z,101876.66
2018-06-25T00:23:39.623Z,101878.05
2018-06-25T00:26:07.673Z,101877.73
2018-06-25T00:28:35.707Z,101874.20
2018-06-25T00:31:03.752Z,101871.82
2018-06-25T00:33:31.800Z,101873.35
2018-06-25T00:35:59.863Z,101871.14
2018-06-25T00:38:27.914Z,101870.80
2018-06-25T00:40:55.948Z,101872.87
2018-06-25T00:43:23.995Z,101872.47
2018-06-25T00:45:52.040Z,101865.59
2018-06-25T00:48:20.106Z,101867.47
2018-06-25T00:50:48.151Z,101874.11
2018-06-25T00:53:16.224Z,101867.79
2018-06-25T00:55:44.264Z,101865.72
2018-06-25T00:58:12.317Z,101861.38
2018-06-25T01:00:40.375Z,101857.43
2018-06-25T01:03:08.465Z,101858.11
2018-06-25T01:05:36.496Z,101852.89
2018-06-25T01:08:04.565Z,101850.11
2018-06-25T01:10:32.604Z,101845.94
2018-06-25T01:13:00.732Z,101840.69
2018-06-25T01:15:28.778Z,101845.55
2018-06-25T01:17:56.820Z,101839.72
2018-06-25T01:20:24.865Z,101844.16
2018-06-25T01:22:52.917Z,101849.72
2018-06-25T01:25:20.963Z,101847.75
2018-06-25T01:27:49.021Z,101842.98
2018-06-25T01:30:17.076Z,101841.45
2018-06-25T01:32:45.120Z,101839.58
2018-06-25T01:35:13.157Z,101851.19
2018-06-25T01:37:41.200Z,101850.84
2018-06-25T01:40:09.233Z,101846.59
2018-06-25T01:42:37.292Z,101846.36
2018-06-25T01:45:05.344Z,101847.41
2018-06-25T01:47:33.372Z,101854.59
2018-06-25T01:50:01.433Z,101852.41
2018-06-25T01:52:29.468Z,101866.31
2018-06-25T01:54:57.514Z,101859.02
2018-06-25T01:57:25.564Z,101857.86
2018-06-25T01:59:53.627Z,101873.16
2018-06-25T02:02:21.652Z,101871.77
2018-06-25T02:04:49.691Z,101872.02
2018-06-25T02:07:17.726Z,101872.50
2018-06-25T02:09:45.760Z,101875.28
2018-06-25T02:12:13.780Z,101872.25
2018-06-25T02:14:41.858Z,101869.47
2018-06-25T02:17:09.918Z,101870.06
2018-06-25T02:19:38.000Z,101862.28
2018-06-25T02:22:06.080Z,101859.50
2018-06-25T02:24:34.129Z,101857.86
2018-06-25T02:27:02.164Z,101862.03
2018-06-25T02:29:30.208Z,101860.64
2018-06-25T02:31:58.247Z,101866.20
2018-06-25T02:34:26.304Z,101861.80
2018-06-25T02:36:54.360Z,101863.19
2018-06-25T02:39:22.426Z,101864.92
2018-06-25T02:41:50.460Z,101865.49
2018-06-25T02:44:18.508Z,101869.33
2018-06-25T02:46:46.540Z,101866.45
2018-06-25T02:49:14.597Z,101865.41
2018-06-25T02:51:42.660Z,101865.41
2018-06-25T02:54:10.701Z,101865.06
2018-06-25T02:56:38.733Z,101864.50
2018-06-25T02:59:06.853Z,101865.30
2018-06-25T03:01:34.808Z,101870.29
2018-06-25T03:04:02.862Z,101872.16
2018-06-25T03:06:30.904Z,101873.55
2018-06-25T03:08:58.956Z,101874.86
2018-06-25T03:11:26.997Z,101871.73
2018-06-25T03:13:55.036Z,101872.22
2018-06-25T03:16:23.081Z,101870.48
2018-06-25T03:18:51.150Z,101868.19
2018-06-25T03:21:19.186Z,101866.14
2018-06-25T03:23:47.252Z,101864.19
2018-06-25T03:26:15.303Z,101864.67
2018-06-25T03:28:43.400Z,101865.15
2018-06-25T03:31:11.456Z,101868.41
2018-06-25T03:33:39.501Z,101869.94
2018-06-25T03:36:07.532Z,101878.20
2018-06-25T03:38:35.624Z,101880.30
2018-06-25T03:41:03.669Z,101879.64
2018-06-25T03:43:31.711Z,101874.22
2018-06-25T03:45:59.772Z,101878.30
2018-06-25T03:48:27.812Z,101877.87
2018-06-25T03:50:55.846Z,101887.75
2018-06-25T03:53:23.897Z,101884.63
2018-06-25T03:55:51.936Z,101883.97
2018-06-25T03:58:19.979Z,101885.84
2018-06-25T04:00:48.020Z,101890.75
2018-06-25T04:03:16.080Z,101884.52
2018-06-25T04:05:44.130Z,101883.04
2018-06-25T04:08:12.167Z,101893.74
2018-06-25T04:10:40.236Z,101894.53
2018-06-25T04:13:08.295Z,101898.88
2018-06-25T04:15:36.347Z,101895.05
2018-06-25T04:18:04.488Z,101897.52
2018-06-25T04:20:32.574Z,101895.78
2018-06-25T04:23:00.682Z,101887.34
2018-06-25T04:25:28.725Z,101886.42
2018-06-25T04:27:56.764Z,101890.16
2018-06-25T04:30:24.812Z,101895.52
2018-06-25T04:32:52.860Z,101892.86
2018-06-25T04:35:20.905Z,101892.42
2018-06-25T04:37:48.944Z,101898.73
2018-06-25T04:40:17.065Z,101900.69
2018-06-25T04:42:45.092Z,101900.34
2018-06-25T04:45:13.170Z,101904.33
2018-06-25T04:47:41.209Z,101908.30
2018-06-25T04:50:09.267Z,101914.02
2018-06-25T04:52:37.416Z,101912.95
2018-06-25T04:55:05.494Z,101914.34
2018-06-25T04:57:33.596Z,101920.39
2018-06-25T05:00:01.732Z,101924.73
2018-06-25T05:02:29.812Z,101924.38
2018-06-25T05:04:57.859Z,101925.08
2018-06-25T05:07:25.910Z,101922.89
2018-06-25T05:09:53.937Z,101924.16
2018-06-25T05:12:21.996Z,101924.31
2018-06-25T05:14:50.032Z,101914.59
2018-06-25T05:17:18.137Z,101910.53
2018-06-25T05:19:46.176Z,101913.92
2018-06-25T05:22:14.339Z,101912.90
2018-06-25T05:24:42.432Z,101921.48
2018-06-25T05:27:10.513Z,101920.81
2018-06-25T05:29:38.571Z,101917.33
2018-06-25T05:32:06.624Z,101921.19
2018-06-25T05:34:34.740Z,101917.98
2018-06-25T05:37:02.784Z,101914.49
2018-06-25T05:39:30.851Z,101916.61
2018-06-25T05:41:58.907Z,101922.41
2018-06-25T05:44:26.944Z,101920.34
2018-06-25T05:46:55.073Z,101924.08
2018-06-25T05:49:23.131Z,101916.17
2018-06-25T05:51:51.189Z,101921.95
2018-06-25T05:54:19.241Z,101918.24
2018-06-25T05:56:47.287Z,101925.69
2018-06-25T05:59:15.429Z,101922.33
2018-06-25T06:01:43.491Z,101921.63
2018-06-25T06:04:11.563Z,101926.17
2018-06-25T06:06:39.618Z,101928.19
2018-06-25T06:09:08.652Z,101925.27
2018-06-25T06:11:36.696Z,101922.63
2018-06-25T06:14:04.754Z,101923.77
2018-06-25T06:16:32.813Z,101923.67
2018-06-25T06:19:00.863Z,101928.44
2018-06-25T06:21:28.913Z,101930.78
2018-06-25T06:23:56.960Z,101924.84
2018-06-25T06:26:25.098Z,101933.70
2018-06-25T06:28:53.128Z,101936.17
2018-06-25T06:31:21.202Z,101930.23
2018-06-25T06:33:49.249Z,101941.16
2018-06-25T06:36:17.492Z,101934.44
2018-06-25T06:38:45.524Z,101940.97
2018-06-25T06:41:13.621Z,101934.43
2018-06-25T06:43:41.668Z,101936.30
2018-06-25T06:46:09.716Z,101942.11
2018-06-25T06:48:37.753Z,101942.83
2018-06-25T06:51:05.820Z,101948.64
2018-06-25T06:53:33.872Z,101945.37
2018-06-25T06:56:01.952Z,101951.43
2018-06-25T06:58:30.052Z,101950.95
2018-06-25T07:00:58.107Z,101955.87
2018-06-25T07:03:26.155Z,101961.00
2018-06-25T07:05:54.231Z,101956.81
2018-06-25T07:08:22.264Z,101956.34
2018-06-25T07:10:50.333Z,101951.80
2018-06-25T07:13:18.435Z,101961.58
2018-06-25T07:15:46.520Z,101966.91
2018-06-25T07:18:14.585Z,101968.63
2018-06-25T07:20:42.711Z,101968.63
2018-06-25T07:23:10.712Z,101965.03
2018-06-25T07:25:38.786Z,101970.27
2018-06-25T07:28:06.877Z,101970.73
2018-06-25T07:30:34.936Z,101975.85
2018-06-25T07:33:02.992Z,101969.44
2018-06-25T07:35:31.035Z,101969.79
2018-06-25T07:37:59.085Z,101976.06
2018-06-25T07:40:27.132Z,101975.60
2018-06-25T07:42:55.273Z,101975.50
2018-06-25T07:45:23.358Z,101982.59
2018-06-25T07:47:51.429Z,101982.37
2018-06-25T07:50:19.492Z,101985.98
2018-06-25T07:52:47.565Z,101980.51
2018-06-25T07:55:15.807Z,101987.38
2018-06-25T07:57:43.899Z,101992.52
2018-06-25T08:00:11.936Z,101990.51
2018-06-25T08:02:40.136Z,101986.67
2018-06-25T08:05:08.212Z,101995.30
2018-06-25T08:07:36.287Z,101990.97
2018-06-25T08:10:04.367Z,101997.27
2018-06-25T08:12:32.414Z,101990.85
2018-06-25T08:15:00.448Z,101994.48
2018-06-25T08:17:28.572Z,101995.16
2018-06-25T08:19:56.844Z,101994.02
2018-06-25T08:22:24.918Z,102003.91
2018-06-25T08:24:52.964Z,102007.74
2018-06-25T08:27:21.057Z,102011.97
2018-06-25T08:29:49.274Z,102010.58
2018-06-25T08:32:17.271Z,102016.41
2018-06-25T08:34:45.323Z,102016.06
2018-06-25T08:37:13.433Z,102010.47
2018-06-25T08:39:41.621Z,102018.02
2018-06-25T08:42:09.677Z,102016.63
2018-06-25T08:44:37.751Z,102019.77
2018-06-25T08:47:06.064Z,102025.37
2018-06-25T08:49:34.107Z,102021.28
2018-06-25T08:52:02.342Z,102024.80
2018-06-25T08:54:30.286Z,102026.77
2018-06-25T08:56:58.379Z,102023.97
2018-06-25T08:59:26.373Z,102026.19
2018-06-25T09:01:54.565Z,102024.55
2018-06-25T09:04:22.638Z,102031.07
2018-06-25T09:06:50.674Z,102030.85
2018-06-25T09:09:18.721Z,102028.27
2018-06-25T09:11:46.819Z,102034.01
2018-06-25T09:14:14.880Z,102034.33
2018-06-25T09:16:42.956Z,102037.13
2018-06-25T09:19:11.144Z,102033.87
2018-06-25T09:21:39.180Z,102035.87
2018-06-25T09:24:07.290Z,102039.59
2018-06-25T09:26:39.627Z,102048.45
2018-06-25T09:29:07.785Z,102050.89
2018-06-25T09:31:35.832Z,102044.58
2018-06-25T09:34:09.332Z,102050.77
2018-06-25T09:36:37.365Z,102051.23
2018-06-25T09:39:07.566Z,102051.08
2018-06-25T09:41:35.797Z,102058.78
2018-06-25T09:44:03.907Z,102054.13
2018-06-25T09:46:31.949Z,102057.03
2018-06-25T09:49:00.328Z,102062.86
2018-06-25T09:51:28.372Z,102063.96
2018-06-25T09:53:56.466Z,102064.42
2018-06-25T09:56:24.571Z,102063.18
2018-06-25T09:58:52.652Z,102061.33
2018-06-25T10:01:20.756Z,102064.02
2018-06-25T10:03:48.783Z,102068.94
2018-06-25T10:06:16.832Z,102066.01
2018-06-25T10:08:44.901Z,102073.93
2018-06-25T10:11:13.003Z,102074.18
2018-06-25T10:13:41.073Z,102072.67
2018-06-25T10:16:09.127Z,102069.05
2018-06-25T10:18:37.209Z,102073.95
2018-06-25T10:21:05.321Z,102075.21
2018-06-25T10:23:33.360Z,102067.89
2018-06-25T10:26:01.420Z,102073.34
2018-06-25T10:28:29.504Z,102070.44
2018-06-25T10:30:57.547Z,102071.63
2018-06-25T10:33:25.606Z,102068.37
2018-06-25T10:35:53.655Z,102071.84
2018-06-25T10:38:21.704Z,102073.81
2018-06-25T10:40:49.781Z,102067.91
2018-06-25T10:43:17.869Z,102083.39
2018-06-25T10:45:45.943Z,102073.59
2018-06-25T10:48:13.972Z,102075.56
2018-06-25T10:50:42.033Z,102074.39
2018-06-25T10:53:10.069Z,102064.83
2018-06-25T10:55:38.112Z,102069.03
2018-06-25T10:58:06.223Z,102061.80
2018-06-25T11:00:34.248Z,102069.97
2018-06-25T11:03:02.317Z,102072.08
2018-06-25T11:05:30.397Z,102069.48
2018-06-25T11:07:58.448Z,102070.95
2018-06-25T11:10:26.485Z,102064.84
2018-06-25T11:12:54.548Z,102069.12
2018-06-25T11:15:22.603Z,102060.63
2018-06-25T11:17:50.644Z,102065.13
2018-06-25T11:20:18.696Z,102067.62
2018-06-25T11:22:46.732Z,102066.63
2018-06-25T11:25:14.793Z,102065.60
2018-06-25T11:27:42.880Z,102071.66
2018-06-25T11:30:10.914Z,102072.28
2018-06-25T11:32:39.013Z,102075.50
2018-06-25T11:35:07.069Z,102079.30
2018-06-25T11:37:35.104Z,102076.98
2018-06-25T11:40:03.168Z,102073.77
2018-06-25T11:42:31.223Z,102078.80
2018-06-25T11:44:59.865Z,102083.03
2018-06-25T11:47:27.895Z,102080.35
2018-06-25T11:49:55.964Z,102082.70
2018-06-25T11:52:24.036Z,102078.98
2018-06-25T11:54:52.089Z,102069.80
2018-06-25T11:59:47.256Z,102075.73
2018-06-25T12:02:15.318Z,102072.03
2018-06-25T12:04:43.411Z,102076.16
2018-06-25T12:07:11.449Z,102082.30
2018-06-25T12:09:39.499Z,102083.95
2018-06-25T12:12:07.581Z,102082.46
2018-06-25T12:14:35.605Z,102087.00
2018-06-25T12:17:03.661Z,102089.22
2018-06-25T12:19:31.725Z,102087.81
2018-06-25T12:21:59.776Z,102089.47
2018-06-25T12:24:27.889Z,102089.02
2018-06-25T12:26:55.961Z,102084.60
2018-06-25T12:29:24.012Z,102087.19
2018-06-25T12:31:52.072Z,102083.02
2018-06-25T12:34:20.113Z,102093.05
2018-06-25T12:36:48.164Z,102084.23
2018-06-25T12:39:16.199Z,102087.53
2018-06-25T12:41:44.244Z,102093.75
2018-06-25T12:44:12.291Z,102082.97
2018-06-25T12:46:40.339Z,102081.78
2018-06-25T12:49:08.407Z,102080.80
2018-06-25T12:51:36.506Z,102078.53
2018-06-25T12:54:04.701Z,102088.02
2018-06-25T12:56:32.771Z,102094.52
2018-06-25T12:59:00.838Z,102096.02
2018-06-25T13:01:28.934Z,102095.42
2018-06-25T13:03:56.984Z,102093.64
2018-06-25T13:06:25.105Z,102096.91
2018-06-25T13:08:53.115Z,102101.27
2018-06-25T13:11:21.172Z,102101.86
2018-06-25T13:13:49.212Z,102109.20
2018-06-25T13:16:17.272Z,102100.25
2018-06-25T13:18:45.324Z,102102.95
2018-06-25T13:21:13.377Z,102113.35
2018-06-25T13:23:48.312Z,102117.73
2018-06-25T13:26:16.368Z,102109.62
2018-06-25T13:28:44.628Z,102113.66
2018-06-25T13:31:12.717Z,102107.64
2018-06-25T13:33:40.736Z,102116.09
2018-06-25T13:36:08.794Z,102114.00
2018-06-25T13:38:36.836Z,102128.54
2018-06-25T13:41:04.896Z,102128.03
2018-06-25T13:43:32.936Z,102130.80
2018-06-25T13:46:01.120Z,102130.86
2018-06-25T13:48:29.201Z,102127.76
2018-06-25T13:50:57.263Z,102135.70
2018-06-25T13:53:25.388Z,102140.45
2018-06-25T13:55:53.513Z,102140.47
2018-06-25T13:58:21.781Z,102143.38
2018-06-25T14:00:49.946Z,102145.98
2018-06-25T14:03:18.005Z,102147.63
2018-06-25T14:05:46.187Z,102149.48
2018-06-25T14:08:14.693Z,102156.63
2018-06-25T14:10:42.967Z,102162.48
2018-06-25T14:13:11.090Z,102163.86
2018-06-25T14:15:39.288Z,102163.64
2018-06-25T14:18:07.658Z,102160.44
2018-06-25T14:20:35.744Z,102167.67
2018-06-25T14:23:03.803Z,102177.03
2018-06-25T14:25:36.033Z,102179.44
2018-06-25T14:28:37.332Z,102170.16
2018-06-25T14:31:10.833Z,102172.42
2018-06-25T14:33:41.930Z,102180.08
2018-06-25T14:36:10.420Z,102173.22
2018-06-25T14:38:38.664Z,102174.53
2018-06-25T14:41:06.850Z,102180.90
2018-06-25T14:43:35.607Z,102181.61
2018-06-25T14:46:04.600Z,102181.09
2018-06-25T14:48:33.424Z,102186.39
2018-06-25T14:51:01.817Z,102181.03
2018-06-25T14:53:29.869Z,102178.38
2018-06-25T14:55:58.096Z,102170.67
2018-06-25T14:58:26.139Z,102174.52
2018-06-25T15:00:54.216Z,102173.37
2018-06-25T15:03:22.256Z,102179.32
2018-06-25T15:05:50.303Z,102184.30
2018-06-25T15:08:18.340Z,102175.91
2018-06-25T15:10:46.395Z,102173.73
2018-06-25T15:13:14.644Z,102165.80
2018-06-25T15:15:42.665Z,102166.37
2018-06-25T15:18:10.830Z,102166.13
2018-06-25T15:20:39.014Z,102155.55
2018-06-25T15:23:07.076Z,102166.84
2018-06-25T15:25:35.221Z,102165.66
2018-06-25T15:28:03.396Z,102166.73
2018-06-25T15:30:31.577Z,102169.86
2018-06-25T15:32:59.663Z,102166.27
2018-06-25T15:35:27.820Z,102168.83
2018-06-25T15:37:56.158Z,102177.19
2018-06-25T15:40:24.317Z,102164.95
2018-06-25T15:42:52.432Z,102161.69
2018-06-25T15:45:20.602Z,102165.64
2018-06-25T15:47:48.747Z,102158.34
2018-06-25T15:50:16.852Z,102164.88
2018-06-25T15:52:44.867Z,102156.48
2018-06-25T15:55:12.944Z,102159.27
2018-06-25T15:57:41.059Z,102150.99
2018-06-25T16:00:09.198Z,102160.53
2018-06-25T16:02:37.188Z,102154.82
2018-06-25T16:05:05.242Z,102151.44
2018-06-25T16:07:33.296Z,102147.00
2018-06-25T16:10:01.399Z,102144.21
2018-06-25T16:12:29.441Z,102149.70
2018-06-25T16:14:57.654Z,102150.42
2018-06-25T16:17:25.714Z,102143.25
2018-06-25T16:19:53.757Z,102153.19
2018-06-25T16:22:21.876Z,102151.55
2018-06-25T16:24:49.923Z,102141.40
2018-06-25T16:27:17.951Z,102146.66
2018-06-25T16:29:47.004Z,102151.08
2018-06-25T16:32:15.196Z,102143.41
2018-06-25T16:34:43.253Z,102143.16
2018-06-25T16:37:11.489Z,102138.48
2018-06-25T16:39:39.568Z,102142.93
2018-06-25T16:42:07.623Z,102135.91
2018-06-25T16:44:35.708Z,102138.83
2018-06-25T16:47:03.808Z,102135.30
2018-06-25T16:49:31.902Z,102135.88
2018-06-25T16:51:59.948Z,102134.73
2018-06-25T16:54:27.991Z,102140.53
2018-06-25T16:56:56.068Z,102137.40
2018-06-25T16:59:24.096Z,102136.12
2018-06-25T17:01:52.261Z,102144.63
2018-06-25T17:04:20.320Z,102136.71
2018-06-25T17:06:48.364Z,102135.42
2018-06-25T17:09:16.408Z,102132.63
2018-06-25T17:11:44.486Z,102131.94
2018-06-25T17:14:12.549Z,102136.59
2018-06-25T17:16:40.638Z,102140.87
2018-06-25T17:19:09.194Z,102127.92
2018-06-25T17:21:37.289Z,102134.49
2018-06-25T17:24:05.344Z,102132.91
2018-06-25T17:26:33.375Z,102131.87
2018-06-25T17:29:01.414Z,102131.25
2018-06-25T17:31:29.460Z,102131.07
2018-06-25T17:33:57.537Z,102133.98
2018-06-25T17:36:25.649Z,102140.70
2018-06-25T17:38:53.679Z,102137.16
2018-06-25T17:41:22.112Z,102136.65
2018-06-25T17:43:50.220Z,102129.36
2018-06-25T17:46:18.277Z,102129.01
2018-06-25T17:48:46.388Z,102136.66
2018-06-25T17:51:14.476Z,102140.09
2018-06-25T17:53:42.601Z,102145.06
2018-06-25T17:56:10.993Z,102148.27
2018-06-25T17:58:39.062Z,102138.67
2018-06-25T18:01:07.159Z,102140.44
2018-06-25T18:03:35.488Z,102140.12
2018-06-25T18:06:03.699Z,102142.21
2018-06-25T18:08:31.849Z,102141.33
2018-06-25T18:11:00.214Z,102138.05
2018-06-25T18:13:28.400Z,102138.87
2018-06-25T18:15:56.538Z,102139.84
2018-06-25T18:18:24.728Z,102140.70
2018-06-25T18:20:52.915Z,102142.41
2018-06-25T18:23:20.987Z,102130.23
2018-06-25T18:25:49.044Z,102148.58
2018-06-25T18:28:17.186Z,102150.05
2018-06-25T18:30:45.388Z,102147.97
2018-06-25T18:33:13.664Z,102142.94
2018-06-25T18:35:41.899Z,102152.31
2018-06-25T18:38:10.195Z,102161.36
2018-06-25T18:40:38.379Z,102156.04
2018-06-25T18:43:06.454Z,102160.84
2018-06-25T18:45:34.558Z,102164.61
2018-06-25T18:48:02.690Z,102163.97
2018-06-25T18:50:30.914Z,102162.92
2018-06-25T18:53:00.760Z,102165.22
2018-06-25T18:55:29.169Z,102161.73
2018-06-25T18:57:57.259Z,102173.32
2018-06-25T19:00:25.337Z,102177.52
2018-06-25T19:02:53.408Z,102168.92
2018-06-25T19:05:21.504Z,102171.98
2018-06-25T19:07:49.637Z,102173.23
2018-06-25T19:10:17.767Z,102170.16
2018-06-25T19:12:45.810Z,102167.34
2018-06-25T19:15:14.070Z,102168.46
2018-06-25T19:17:42.258Z,102164.70
2018-06-25T19:20:10.569Z,102164.94
2018-06-25T19:22:38.644Z,102166.54
2018-06-25T19:25:06.725Z,102168.13
2018-06-25T19:27:34.974Z,102169.16
2018-06-25T19:30:03.192Z,102173.80
2018-06-25T19:32:31.435Z,102170.62
2018-06-25T19:34:59.528Z,102178.05
2018-06-25T19:37:27.569Z,102180.50
2018-06-25T19:39:55.609Z,102183.13
2018-06-25T19:42:23.722Z,102183.48
2018-06-25T19:44:51.912Z,102183.36
2018-06-25T19:47:19.972Z,102182.50
2018-06-25T19:49:48.029Z,102185.64
2018-06-25T19:52:16.116Z,102184.21
2018-06-25T19:54:44.316Z,102192.16
2018-06-25T19:57:12.492Z,102201.32
2018-06-25T19:59:40.641Z,102196.52
2018-06-25T20:02:08.780Z,102194.53
2018-06-25T20:04:36.820Z,102198.71
2018-06-25T20:07:04.952Z,102202.20
2018-06-25T20:09:32.998Z,102206.37
2018-06-25T20:12:01.060Z,102200.80
2018-06-25T20:14:29.132Z,102198.45
2018-06-25T20:16:57.237Z,102200.16
2018-06-25T20:19:25.363Z,102196.57
2018-06-25T20:21:53.360Z,102198.97
2018-06-25T20:24:21.425Z,102207.20
2018-06-25T20:26:49.475Z,102206.03
2018-06-25T20:29:17.580Z,102200.66
2018-06-25T20:31:45.589Z,102204.80
2018-06-25T20:34:13.661Z,102204.62
2018-06-25T20:36:42.512Z,102204.41
2018-06-25T20:39:11.704Z,102199.87
2018-06-25T20:41:39.796Z,102203.41
2018-06-25T20:44:07.844Z,102201.09
2018-06-25T20:46:36.180Z,102202.97
2018-06-25T20:49:04.460Z,102205.98
2018-06-25T20:51:32.540Z,102203.45
2018-06-25T20:54:00.599Z,102210.43
2018-06-25T20:56:28.660Z,102210.17
2018-06-25T20:58:56.713Z,102207.81
2018-06-25T21:01:24.765Z,102210.13
2018-06-25T21:03:52.804Z,102208.02
2018-06-25T21:06:20.883Z,102214.73
2018-06-25T21:08:48.948Z,102210.56
2018-06-25T21:11:16.996Z,102213.20
2018-06-25T21:13:45.046Z,102208.48
2018-06-25T21:16:13.197Z,102212.67
2018-06-25T21:18:41.242Z,102209.83
2018-06-25T21:21:09.324Z,102217.28
2018-06-25T21:23:37.364Z,102216.31
2018-06-25T21:26:05.428Z,102215.91
2018-06-25T21:28:33.477Z,102214.28
2018-06-25T21:31:01.565Z,102215.34
2018-06-25T21:33:29.603Z,102213.95
2018-06-25T21:35:57.739Z,102216.65
2018-06-25T21:38:25.717Z,102212.95
2018-06-25T21:40:53.780Z,102210.99
2018-06-25T21:43:21.831Z,102206.47
2018-06-25T21:45:49.887Z,102201.45
2018-06-25T21:48:17.933Z,102208.09
2018-06-25T21:50:45.968Z,102203.82
2018-06-25T21:53:14.020Z,102204.88
2018-06-25T21:55:42.048Z,102204.30
2018-06-25T21:58:10.105Z,102214.20
2018-06-25T22:00:46.066Z,102213.41
2018-06-25T22:03:14.217Z,102215.94
2018-06-25T22:05:42.272Z,102213.78
2018-06-25T22:08:10.422Z,102206.55
2018-06-25T22:10:38.484Z,102219.03
2018-06-25T22:13:06.655Z,102221.26
2018-06-25T22:15:34.789Z,102226.27
2018-06-25T22:18:03.080Z,102221.48
2018-06-25T22:20:31.156Z,102228.14
2018-06-25T22:22:59.207Z,102227.31
2018-06-25T22:25:27.244Z,102223.70
2018-06-25T22:27:55.396Z,102224.19
2018-06-25T22:30:23.712Z,102218.47
2018-06-25T22:32:51.883Z,102227.73
2018-06-25T22:35:19.927Z,102232.75
2018-06-25T22:37:48.455Z,102224.61
2018-06-25T22:40:16.532Z,102221.73
2018-06-25T22:42:44.591Z,102225.58
2018-06-25T22:45:12.856Z,102228.85
2018-06-25T22:47:40.914Z,102224.75
2018-06-25T22:50:08.956Z,102221.40
2018-06-25T22:52:37.007Z,102220.75
2018-06-25T22:55:05.320Z,102218.88
2018-06-25T22:57:33.421Z,102218.27
2018-06-25T23:00:01.462Z,102222.14
2018-06-25T23:02:29.527Z,102223.53
2018-06-25T23:04:57.584Z,102219.09
2018-06-25T23:07:25.849Z,102214.91
2018-06-25T23:09:53.944Z,102222.22
2018-06-25T23:12:22.003Z,102220.83
2018-06-25T23:14:50.065Z,102221.06
2018-06-25T23:17:18.117Z,102210.25
2018-06-25T23:19:46.166Z,102212.47
2018-06-25T23:22:14.208Z,102214.09
2018-06-25T23:24:42.248Z,102212.13
2018-06-25T23:27:10.397Z,102216.31
2018-06-25T23:29:38.439Z,102216.23
2018-06-25T23:32:06.505Z,102220.06
2018-06-25T23:34:34.541Z,102220.55
2018-06-25T23:37:02.589Z,102224.98
2018-06-25T23:39:30.639Z,102221.94
2018-06-25T23:41:58.677Z,102221.94
2018-06-25T23:44:26.762Z,102222.42
2018-06-25T23:46:54.809Z,102222.99
2018-06-25T23:49:22.859Z,102220.13
2018-06-25T23:51:50.932Z,102219.06
2018-06-25T23:54:19.006Z,102223.59
2018-06-25T23:56:47.085Z,102224.50
2018-06-25T23:59:15.150Z,102220.06
